Aviation Digital Data Service (ADDS)

Output produced by TAFs form (0123 UTC 23 July 2017)
found at http://www.aviationweather.gov/adds/tafs/
 
METAR text: RJBT 230100Z 19003KT 150V230 9999 FEW030 SCT090 BKN150 29/24 Q1007
Conditions at: RJBT (TAJIMA , JP) observed 0100 UTC 23 July 2017
Temperature: 29.0°C (84°F)
Dewpoint: 24.0°C (75°F) [RH = 74%]
Pressure (altimeter): 29.73 inches Hg (1007.0 mb)
Winds: from the S (190 degrees) at 3 MPH (3 knots; 1.6 m/s)
Visibility: 6 or more miles (10+ km)
Ceiling: 15000 feet AGL
Clouds: few clouds at 3000 feet AGL
scattered clouds at 9000 feet AGL
broken clouds at 15000 feet AGL
Weather: no significant weather observed at this time